createdAt,value
2019-02-25T00:01:28.737Z,98495.70
2019-02-25T00:03:59.306Z,98501.80
2019-02-25T00:06:30.447Z,98503.61
2019-02-25T00:09:00.969Z,98504.12
2019-02-25T00:11:31.469Z,98508.83
2019-02-25T00:14:02.045Z,98511.47
2019-02-25T00:16:32.569Z,98513.31
2019-02-25T00:19:03.105Z,98500.86
2019-02-25T00:21:34.031Z,98504.41
2019-02-25T00:24:04.439Z,98497.73
2019-02-25T00:26:34.769Z,98503.79
2019-02-25T00:29:05.292Z,98501.72
2019-02-25T00:31:35.739Z,98497.27
2019-02-25T00:34:06.069Z,98497.11
2019-02-25T00:36:38.122Z,98500.20
2019-02-25T00:39:09.744Z,98492.75
2019-02-25T00:41:40.569Z,98501.52
2019-02-25T00:44:11.000Z,98502.36
2019-02-25T00:46:41.427Z,98506.31
2019-02-25T00:49:11.827Z,98508.13
2019-02-25T00:51:42.319Z,98515.63
2019-02-25T00:54:12.845Z,98512.16
2019-02-25T00:56:43.278Z,98508.35
2019-02-25T00:59:13.711Z,98513.66
2019-02-25T01:01:45.806Z,98511.38
2019-02-25T01:04:16.314Z,98507.28
2019-02-25T01:06:46.751Z,98511.47
2019-02-25T01:09:17.113Z,98510.87
2019-02-25T01:11:47.553Z,98516.92
2019-02-25T01:14:18.098Z,98516.92
2019-02-25T01:16:48.533Z,98511.26
2019-02-25T01:19:18.856Z,98509.13
2019-02-25T01:21:49.293Z,98507.45
2019-02-25T01:24:19.891Z,98507.52
2019-02-25T01:26:50.343Z,98507.90
2019-02-25T01:29:20.823Z,98496.81
2019-02-25T01:31:51.249Z,98506.77
2019-02-25T01:34:21.689Z,98504.93
2019-02-25T01:36:52.087Z,98510.99
2019-02-25T01:39:22.564Z,98504.47
2019-02-25T01:41:53.015Z,98513.94
2019-02-25T01:44:23.470Z,98512.94
2019-02-25T01:46:53.840Z,98524.81
2019-02-25T01:49:24.220Z,98520.41
2019-02-25T01:51:54.599Z,98517.31
2019-02-25T01:54:24.880Z,98505.71
2019-02-25T01:56:55.180Z,98507.52
2019-02-25T01:59:25.442Z,98510.99
2019-02-25T02:01:55.927Z,98513.95
2019-02-25T02:04:26.401Z,98504.64
2019-02-25T02:06:56.852Z,98510.37
2019-02-25T02:09:27.301Z,98507.28
2019-02-25T02:11:57.690Z,98511.20
2019-02-25T02:14:28.018Z,98507.73
2019-02-25T02:16:58.462Z,98511.92
2019-02-25T02:19:28.817Z,98501.84
2019-02-25T02:21:59.271Z,98499.44
2019-02-25T02:24:29.772Z,98486.87
2019-02-25T02:27:00.149Z,98491.13
2019-02-25T02:29:30.565Z,98483.06
2019-02-25T02:32:01.055Z,98483.90
2019-02-25T02:34:31.607Z,98479.64
2019-02-25T02:37:01.915Z,98482.45
2019-02-25T02:39:32.265Z,98476.00
2019-02-25T02:42:37.084Z,98481.94
2019-02-25T02:45:26.848Z,98476.94
2019-02-25T02:48:05.042Z,98480.03
2019-02-25T02:50:35.519Z,98476.16
2019-02-25T02:53:05.881Z,98471.69
2019-02-25T02:55:36.279Z,98476.39
2019-02-25T02:58:06.707Z,98468.92
2019-02-25T03:00:37.081Z,98470.20
2019-02-25T03:03:07.629Z,98467.63
2019-02-25T03:05:37.959Z,98470.83
2019-02-25T03:08:08.378Z,98469.53
2019-02-25T03:10:38.741Z,98469.15
2019-02-25T03:13:09.117Z,98468.77
2019-02-25T03:15:39.551Z,98477.40
2019-02-25T03:18:09.971Z,98478.39
2019-02-25T03:20:40.374Z,98480.65
2019-02-25T03:23:10.781Z,98482.22
2019-02-25T03:25:41.335Z,98476.45
2019-02-25T03:28:11.729Z,98481.73
2019-02-25T03:30:42.223Z,98481.55
2019-02-25T03:33:12.551Z,98477.30
2019-02-25T03:35:42.977Z,98479.58
2019-02-25T03:38:13.564Z,98484.73
2019-02-25T03:40:44.006Z,98484.80
2019-02-25T03:43:14.453Z,98485.13
2019-02-25T03:45:44.845Z,98492.86
2019-02-25T03:48:15.219Z,98483.96
2019-02-25T03:50:45.632Z,98485.91
2019-02-25T03:53:16.065Z,98488.77
2019-02-25T03:55:46.365Z,98486.45
2019-02-25T03:58:16.787Z,98478.84
2019-02-25T04:00:47.122Z,98470.99
2019-02-25T04:03:17.579Z,98476.00
2019-02-25T04:05:47.944Z,98474.20
2019-02-25T04:08:18.424Z,98481.03
2019-02-25T04:10:48.902Z,98474.20
2019-02-25T04:13:19.365Z,98470.91
2019-02-25T04:15:49.774Z,98469.20
2019-02-25T04:18:20.142Z,98478.44
2019-02-25T04:20:50.528Z,98474.86
2019-02-25T04:23:21.011Z,98470.04
2019-02-25T04:25:51.494Z,98478.16
2019-02-25T04:28:21.814Z,98477.32
2019-02-25T04:30:52.297Z,98476.70
2019-02-25T04:33:22.700Z,98478.25
2019-02-25T04:35:53.175Z,98471.87
2019-02-25T04:38:23.559Z,98483.91
2019-02-25T04:40:53.934Z,98473.72
2019-02-25T04:43:24.277Z,98470.76
2019-02-25T04:45:54.733Z,98474.17
2019-02-25T04:48:25.174Z,98473.33
2019-02-25T04:50:55.682Z,98479.41
2019-02-25T04:53:26.104Z,98482.50
2019-02-25T04:55:56.464Z,98488.05
2019-02-25T04:58:26.858Z,98489.84
2019-02-25T05:00:57.238Z,98490.23
2019-02-25T05:03:27.664Z,98496.07
2019-02-25T05:05:58.123Z,98493.59
2019-02-25T05:08:28.599Z,98495.62
2019-02-25T05:10:59.106Z,98492.80
2019-02-25T05:13:29.449Z,98491.91
2019-02-25T05:15:59.938Z,98489.33
2019-02-25T05:18:30.239Z,98485.86
2019-02-25T05:21:00.492Z,98483.28
2019-02-25T05:23:30.948Z,98486.37
2019-02-25T05:26:01.408Z,98493.20
2019-02-25T05:28:31.842Z,98482.50
2019-02-25T05:31:02.292Z,98494.59
2019-02-25T05:33:32.712Z,98497.72
2019-02-25T05:36:03.130Z,98486.48
2019-02-25T05:38:33.459Z,98490.23
2019-02-25T05:41:03.839Z,98492.80
2019-02-25T05:43:34.280Z,98475.16
2019-02-25T05:46:04.706Z,98469.11
2019-02-25T05:48:35.174Z,98472.70
2019-02-25T05:51:05.636Z,98473.59
2019-02-25T05:53:36.158Z,98487.53
2019-02-25T05:56:06.654Z,98494.11
2019-02-25T05:58:37.100Z,98485.09
2019-02-25T06:01:07.504Z,98488.57
2019-02-25T06:03:38.023Z,98482.25
2019-02-25T06:06:08.413Z,98479.22
2019-02-25T06:08:38.757Z,98478.66
2019-02-25T06:11:09.300Z,98477.73
2019-02-25T06:13:39.827Z,98491.39
2019-02-25T06:16:10.282Z,98487.53
2019-02-25T06:18:40.785Z,98494.86
2019-02-25T06:21:11.672Z,98487.14
2019-02-25T06:23:42.747Z,98489.66
2019-02-25T06:26:13.223Z,98484.00
2019-02-25T06:28:43.704Z,98483.55
2019-02-25T06:31:14.369Z,98488.49
2019-02-25T06:33:47.426Z,98480.55
2019-02-25T06:36:17.375Z,98489.01
2019-02-25T06:38:47.858Z,98483.31
2019-02-25T06:41:18.330Z,98488.34
2019-02-25T06:43:48.773Z,98489.03
2019-02-25T06:46:19.068Z,98495.98
2019-02-25T06:48:49.576Z,98485.92
2019-02-25T06:51:19.889Z,98480.88
2019-02-25T06:53:50.230Z,98479.77
2019-02-25T06:56:20.676Z,98474.72
2019-02-25T06:58:50.897Z,98474.89
2019-02-25T07:01:21.301Z,98476.37
2019-02-25T07:04:10.520Z,98477.75
2019-02-25T07:06:52.603Z,98474.98
2019-02-25T07:09:41.795Z,98464.31
2019-02-25T07:12:17.419Z,98470.92
2019-02-25T07:15:07.488Z,98468.80
2019-02-25T07:17:49.374Z,98475.22
2019-02-25T07:20:44.058Z,98477.73
2019-02-25T07:23:23.238Z,98480.27
2019-02-25T07:26:15.504Z,98481.56
2019-02-25T07:29:17.083Z,98481.35
2019-02-25T07:32:05.312Z,98494.41
2019-02-25T07:35:00.950Z,98489.66
2019-02-25T07:37:57.369Z,98488.34
2019-02-25T07:40:46.666Z,98490.39
2019-02-25T07:43:34.402Z,98494.78
2019-02-25T07:46:23.597Z,98494.48
2019-02-25T07:49:24.981Z,98489.97
2019-02-25T07:52:13.224Z,98489.70
2019-02-25T07:55:00.898Z,98496.36
2019-02-25T07:57:59.035Z,98499.47
2019-02-25T08:00:36.776Z,98500.08
2019-02-25T08:03:35.229Z,98490.33
2019-02-25T08:06:20.234Z,98488.10
2019-02-25T08:09:04.461Z,98492.37
2019-02-25T08:11:53.848Z,98479.01
2019-02-25T08:14:41.955Z,98472.91
2019-02-25T08:17:35.413Z,98474.23
2019-02-25T08:20:23.781Z,98486.70
2019-02-25T08:23:13.197Z,98470.00
2019-02-25T08:26:11.709Z,98484.37
2019-02-25T08:29:06.967Z,98486.34
2019-02-25T08:31:56.014Z,98480.03
2019-02-25T08:34:55.649Z,98492.06
2019-02-25T08:38:29.749Z,98488.53
2019-02-25T08:41:24.639Z,98490.88
2019-02-25T08:44:05.005Z,98488.61
2019-02-25T08:47:03.587Z,98488.03
2019-02-25T08:49:50.147Z,98488.31
2019-02-25T08:52:20.922Z,98489.70
2019-02-25T08:54:54.153Z,98493.93
2019-02-25T08:57:24.671Z,98498.52
2019-02-25T08:59:55.358Z,98503.59
2019-02-25T09:02:27.126Z,98489.35
2019-02-25T09:04:57.798Z,98495.98
2019-02-25T09:07:28.709Z,98496.67
2019-02-25T09:09:59.708Z,98495.58
2019-02-25T09:12:30.176Z,98494.44
2019-02-25T09:15:00.634Z,98499.25
2019-02-25T09:17:31.298Z,98496.45
2019-02-25T09:20:04.625Z,98503.00
2019-02-25T09:22:35.258Z,98504.84
2019-02-25T09:25:08.108Z,98511.53
2019-02-25T09:27:39.055Z,98506.58
2019-02-25T09:30:15.531Z,98507.48
2019-02-25T09:32:46.259Z,98507.02
2019-02-25T09:35:17.175Z,98512.31
2019-02-25T09:37:47.737Z,98513.59
2019-02-25T09:40:18.148Z,98516.19
2019-02-25T09:42:48.528Z,98519.98
2019-02-25T09:45:19.028Z,98511.54
2019-02-25T09:47:49.514Z,98512.41
2019-02-25T09:50:19.998Z,98510.93
2019-02-25T09:52:50.593Z,98513.05
2019-02-25T09:55:21.126Z,98525.36
2019-02-25T09:57:53.580Z,98528.94
2019-02-25T10:00:23.971Z,98523.07
2019-02-25T10:02:54.406Z,98530.73
2019-02-25T10:05:24.953Z,98537.05
2019-02-25T10:07:55.467Z,98527.05
2019-02-25T10:10:25.967Z,98527.69
2019-02-25T10:12:56.614Z,98520.41
2019-02-25T10:15:29.632Z,98529.50
2019-02-25T10:18:01.776Z,98525.38
2019-02-25T10:20:32.765Z,98522.11
2019-02-25T10:23:03.447Z,98523.45
2019-02-25T10:25:33.980Z,98525.08
2019-02-25T10:28:04.471Z,98521.16
2019-02-25T10:30:34.848Z,98512.73
2019-02-25T10:33:05.353Z,98512.58
2019-02-25T10:35:35.665Z,98505.57
2019-02-25T10:38:06.385Z,98498.34
2019-02-25T10:40:36.852Z,98508.52
2019-02-25T10:43:07.826Z,98501.44
2019-02-25T10:45:43.155Z,98508.67
2019-02-25T10:48:15.096Z,98512.61
2019-02-25T10:50:45.819Z,98507.23
2019-02-25T10:53:18.315Z,98509.20
2019-02-25T10:56:02.869Z,98513.23
2019-02-25T10:58:35.784Z,98510.30
2019-02-25T11:01:08.549Z,98510.62
2019-02-25T11:03:39.216Z,98501.67
2019-02-25T11:06:09.695Z,98506.00
2019-02-25T11:08:43.546Z,98500.36
2019-02-25T11:11:21.055Z,98498.23
2019-02-25T11:13:52.334Z,98498.44
2019-02-25T11:16:22.767Z,98497.58
2019-02-25T11:18:55.088Z,98503.67
2019-02-25T11:21:25.624Z,98506.06
2019-02-25T11:23:55.909Z,98492.89
2019-02-25T11:26:28.369Z,98491.53
2019-02-25T11:28:58.427Z,98481.02
2019-02-25T11:31:29.224Z,98488.01
2019-02-25T11:34:00.653Z,98486.25
2019-02-25T11:36:31.813Z,98488.88
2019-02-25T11:39:02.934Z,98486.08
2019-02-25T11:41:36.449Z,98484.37
2019-02-25T11:44:06.796Z,98475.83
2019-02-25T11:46:37.530Z,98476.40
2019-02-25T11:49:10.871Z,98472.93
2019-02-25T11:51:41.324Z,98475.36
2019-02-25T11:54:14.568Z,98479.70
2019-02-25T11:56:44.881Z,98485.74
2019-02-25T11:59:15.183Z,98480.52
2019-02-25T12:01:45.715Z,98477.75
2019-02-25T12:04:16.084Z,98476.66
2019-02-25T12:06:46.477Z,98478.36
2019-02-25T12:09:17.407Z,98474.19
2019-02-25T12:11:50.651Z,98474.52
2019-02-25T12:14:22.886Z,98470.80
2019-02-25T12:16:53.333Z,98467.27
2019-02-25T12:19:23.666Z,98471.16
2019-02-25T12:21:54.142Z,98469.09
2019-02-25T12:24:24.426Z,98469.45
2019-02-25T12:26:54.835Z,98464.51
2019-02-25T12:29:25.312Z,98452.56
2019-02-25T12:31:55.772Z,98445.05
2019-02-25T12:34:26.236Z,98433.73
2019-02-25T12:36:56.630Z,98434.85
2019-02-25T12:39:27.094Z,98433.53
2019-02-25T12:42:00.671Z,98432.55
2019-02-25T12:44:34.128Z,98426.19
2019-02-25T12:47:04.697Z,98425.83
2019-02-25T12:49:35.150Z,98416.52
2019-02-25T12:52:05.679Z,98405.50
2019-02-25T12:54:36.074Z,98405.38
2019-02-25T12:57:06.515Z,98400.18
2019-02-25T12:59:37.096Z,98404.87
2019-02-25T13:02:07.861Z,98399.72
2019-02-25T13:04:39.953Z,98403.82
2019-02-25T13:07:10.814Z,98396.30
2019-02-25T13:09:41.561Z,98392.92
2019-02-25T13:12:12.050Z,98387.94
2019-02-25T13:14:42.481Z,98386.44
2019-02-25T13:17:12.829Z,98393.34
2019-02-25T13:19:43.144Z,98387.30
2019-02-25T13:22:13.616Z,98372.92
2019-02-25T13:24:44.066Z,98368.78
2019-02-25T13:27:14.497Z,98369.20
2019-02-25T13:29:44.765Z,98369.77
2019-02-25T13:32:15.393Z,98368.52
2019-02-25T13:34:45.825Z,98367.66
2019-02-25T13:37:16.319Z,98358.12
2019-02-25T13:39:46.750Z,98359.84
2019-02-25T13:42:17.247Z,98356.13
2019-02-25T13:44:47.655Z,98348.73
2019-02-25T13:47:18.128Z,98342.98
2019-02-25T13:49:48.650Z,98338.94
2019-02-25T13:52:19.066Z,98331.42
2019-02-25T13:54:49.434Z,98324.22
2019-02-25T13:57:20.019Z,98325.88
2019-02-25T13:59:50.478Z,98325.16
2019-02-25T14:02:20.828Z,98315.55
2019-02-25T14:04:51.365Z,98318.80
2019-02-25T14:07:22.060Z,98320.39
2019-02-25T14:09:52.562Z,98318.73
2019-02-25T14:12:23.005Z,98316.39
2019-02-25T14:14:53.312Z,98309.16
2019-02-25T14:17:23.677Z,98303.54
2019-02-25T14:19:54.629Z,98301.80
2019-02-25T14:22:25.029Z,98301.30
2019-02-25T14:24:55.524Z,98295.89
2019-02-25T14:27:27.140Z,98303.50
2019-02-25T14:29:58.189Z,98294.31
2019-02-25T14:32:30.030Z,98295.33
2019-02-25T14:35:00.660Z,98287.79
2019-02-25T14:37:31.431Z,98287.98
2019-02-25T14:40:04.158Z,98281.88
2019-02-25T14:42:36.366Z,98271.97
2019-02-25T14:45:09.459Z,98271.59
2019-02-25T14:47:42.036Z,98264.17
2019-02-25T14:50:15.621Z,98266.81
2019-02-25T14:52:46.676Z,98258.72
2019-02-25T14:55:17.586Z,98251.48
2019-02-25T14:57:48.271Z,98253.63
2019-02-25T15:00:25.859Z,98251.81
2019-02-25T15:02:56.063Z,98256.75
2019-02-25T15:05:26.728Z,98252.80
2019-02-25T15:07:57.413Z,98246.02
2019-02-25T15:10:29.675Z,98247.19
2019-02-25T15:13:02.145Z,98242.25
2019-02-25T15:15:34.650Z,98237.62
2019-02-25T15:18:04.952Z,98247.16
2019-02-25T15:20:36.132Z,98245.45
2019-02-25T15:23:07.583Z,98247.91
2019-02-25T15:25:42.074Z,98251.32
2019-02-25T15:28:11.951Z,98250.06
2019-02-25T15:30:42.896Z,98251.52
2019-02-25T15:33:13.644Z,98245.52
2019-02-25T15:35:44.265Z,98242.67
2019-02-25T15:38:15.105Z,98245.77
2019-02-25T15:40:46.097Z,98239.27
2019-02-25T15:43:21.320Z,98241.77
2019-02-25T15:45:52.758Z,98235.81
2019-02-25T15:48:23.927Z,98237.47
2019-02-25T15:50:58.633Z,98233.67
2019-02-25T15:53:29.751Z,98227.92
2019-02-25T15:56:01.425Z,98236.79
2019-02-25T15:58:32.968Z,98241.75
2019-02-25T16:01:03.673Z,98244.04
2019-02-25T16:03:36.651Z,98236.77
2019-02-25T16:06:10.598Z,98237.59
2019-02-25T16:08:41.194Z,98234.89
2019-02-25T16:11:14.043Z,98239.25
2019-02-25T16:13:45.322Z,98242.34
2019-02-25T16:16:19.840Z,98245.98
2019-02-25T16:18:50.164Z,98258.66
2019-02-25T16:21:24.437Z,98245.31
2019-02-25T16:23:59.304Z,98245.75
2019-02-25T16:26:32.526Z,98240.64
2019-02-25T16:29:06.081Z,98241.81
2019-02-25T16:31:37.605Z,98244.57
2019-02-25T16:34:09.964Z,98248.02
2019-02-25T16:36:45.201Z,98246.06
2019-02-25T16:39:14.863Z,98246.03
2019-02-25T16:41:46.115Z,98243.53
2019-02-25T16:44:17.520Z,98251.90
2019-02-25T16:46:49.043Z,98260.36
2019-02-25T16:49:20.354Z,98263.36
2019-02-25T16:51:51.480Z,98272.48
2019-02-25T16:54:25.112Z,98274.39
2019-02-25T16:56:57.293Z,98270.11
2019-02-25T16:59:27.539Z,98276.91
2019-02-25T17:02:00.106Z,98282.17
2019-02-25T17:04:31.879Z,98285.73
2019-02-25T17:07:02.345Z,98284.30
2019-02-25T17:09:34.154Z,98275.42
2019-02-25T17:12:06.482Z,98280.75
2019-02-25T17:14:40.079Z,98281.62
2019-02-25T17:17:09.704Z,98286.40
2019-02-25T17:19:41.207Z,98295.05
2019-02-25T17:22:12.252Z,98293.78
2019-02-25T17:24:42.969Z,98286.64
2019-02-25T17:27:14.687Z,98276.33
2019-02-25T17:29:46.346Z,98290.87
2019-02-25T17:32:19.408Z,98287.81
2019-02-25T17:34:51.141Z,98290.19
2019-02-25T17:37:22.324Z,98290.80
2019-02-25T17:39:54.507Z,98289.41
2019-02-25T17:42:26.432Z,98295.13
2019-02-25T17:44:57.676Z,98293.73
2019-02-25T17:47:32.571Z,98292.69
2019-02-25T17:50:03.992Z,98301.34
2019-02-25T17:52:33.959Z,98307.07
2019-02-25T17:55:10.144Z,98298.42
2019-02-25T17:57:41.003Z,98296.19
2019-02-25T18:00:18.655Z,98294.63
2019-02-25T18:02:49.360Z,98293.00
2019-02-25T18:05:21.229Z,98294.77
2019-02-25T18:07:53.084Z,98295.61
2019-02-25T18:10:25.152Z,98297.30
2019-02-25T18:12:59.064Z,98297.91
2019-02-25T18:15:33.019Z,98302.31
2019-02-25T18:18:06.989Z,98302.17
2019-02-25T18:20:39.023Z,98303.95
2019-02-25T18:23:10.352Z,98299.82
2019-02-25T18:25:41.775Z,98292.46
2019-02-25T18:28:13.565Z,98286.41
2019-02-25T18:30:45.814Z,98295.55
2019-02-25T18:33:19.104Z,98295.19
2019-02-25T18:35:49.596Z,98294.83
2019-02-25T18:38:21.121Z,98286.28
2019-02-25T18:40:52.610Z,98286.75
2019-02-25T18:43:24.307Z,98290.30
2019-02-25T18:45:56.265Z,98297.17
2019-02-25T18:48:27.475Z,98289.45
2019-02-25T18:50:59.581Z,98288.98
2019-02-25T18:53:30.838Z,98288.72
2019-02-25T18:56:01.393Z,98286.20
2019-02-25T18:58:33.612Z,98281.81
2019-02-25T19:01:04.476Z,98280.61
2019-02-25T19:03:35.460Z,98270.39
2019-02-25T19:06:06.256Z,98276.79
2019-02-25T19:08:36.771Z,98274.74
2019-02-25T19:11:07.309Z,98276.13
2019-02-25T19:13:37.759Z,98278.36
2019-02-25T19:16:08.352Z,98280.11
2019-02-25T19:18:41.336Z,98280.81
2019-02-25T19:21:11.151Z,98282.55
2019-02-25T19:23:42.295Z,98283.20
2019-02-25T19:26:15.373Z,98286.75
2019-02-25T19:28:48.089Z,98290.55
2019-02-25T19:31:18.448Z,98282.51
2019-02-25T19:33:48.853Z,98292.56
2019-02-25T19:36:19.683Z,98298.18
2019-02-25T19:38:50.328Z,98309.56
2019-02-25T19:41:22.918Z,98309.63
2019-02-25T19:43:59.104Z,98311.87
2019-02-25T19:46:28.199Z,98310.77
2019-02-25T19:48:58.541Z,98306.53
2019-02-25T19:51:29.812Z,98310.43
2019-02-25T19:54:02.604Z,98312.30
2019-02-25T19:56:32.476Z,98304.09
2019-02-25T19:59:03.796Z,98308.02
2019-02-25T20:01:35.263Z,98307.14
2019-02-25T20:04:07.053Z,98312.77
2019-02-25T20:06:38.224Z,98308.41
2019-02-25T20:09:08.979Z,98308.41
2019-02-25T20:11:39.669Z,98306.73
2019-02-25T20:14:11.035Z,98307.77
2019-02-25T20:16:41.434Z,98309.76
2019-02-25T20:19:11.875Z,98303.72
2019-02-25T20:21:42.388Z,98304.38
2019-02-25T20:24:14.697Z,98310.27
2019-02-25T20:26:48.591Z,98318.86
2019-02-25T20:29:17.384Z,98314.08
2019-02-25T20:31:49.629Z,98317.24
2019-02-25T20:34:20.705Z,98314.32
2019-02-25T20:36:53.065Z,98312.41
2019-02-25T20:39:24.578Z,98318.07
2019-02-25T20:41:57.056Z,98318.17
2019-02-25T20:44:28.516Z,98321.83
2019-02-25T20:47:00.148Z,98326.05
2019-02-25T20:49:31.867Z,98322.09
2019-02-25T20:52:02.371Z,98331.06
2019-02-25T20:54:32.758Z,98337.98
2019-02-25T20:57:03.209Z,98332.42
2019-02-25T20:59:34.871Z,98330.05
2019-02-25T21:02:09.666Z,98333.20
2019-02-25T21:04:38.680Z,98328.68
2019-02-25T21:07:11.488Z,98326.92
2019-02-25T21:09:42.243Z,98319.13
2019-02-25T21:12:15.067Z,98320.31
2019-02-25T21:14:45.132Z,98313.81
2019-02-25T21:17:16.493Z,98318.30
2019-02-25T21:19:47.131Z,98321.63
2019-02-25T21:22:17.620Z,98315.47
2019-02-25T21:24:49.489Z,98317.63
2019-02-25T21:27:20.113Z,98316.64
2019-02-25T21:29:52.910Z,98323.05
2019-02-25T21:32:24.170Z,98315.56
2019-02-25T21:34:56.007Z,98308.42
2019-02-25T21:37:27.718Z,98319.63
2019-02-25T21:40:00.880Z,98320.17
2019-02-25T21:42:31.424Z,98311.30
2019-02-25T21:45:02.279Z,98313.54
2019-02-25T21:47:35.068Z,98318.00
2019-02-25T21:50:07.423Z,98312.64
2019-02-25T21:52:38.971Z,98321.56
2019-02-25T21:55:11.723Z,98313.03
2019-02-25T21:57:42.368Z,98313.41
2019-02-25T22:00:17.055Z,98312.88
2019-02-25T22:02:50.329Z,98313.25
2019-02-25T22:05:21.299Z,98312.67
2019-02-25T22:07:55.366Z,98313.70
2019-02-25T22:10:26.179Z,98319.60
2019-02-25T22:12:56.626Z,98311.36
2019-02-25T22:15:26.992Z,98315.41
2019-02-25T22:17:57.420Z,98317.20
2019-02-25T22:20:27.877Z,98312.02
2019-02-25T22:22:59.221Z,98309.60
2019-02-25T22:25:30.427Z,98315.45
2019-02-25T22:28:01.695Z,98315.34
2019-02-25T22:30:32.976Z,98313.05
2019-02-25T22:33:04.913Z,98310.83
2019-02-25T22:35:37.561Z,98307.87
2019-02-25T22:38:07.637Z,98310.20
2019-02-25T22:40:39.008Z,98308.07
2019-02-25T22:43:10.510Z,98305.39
2019-02-25T22:45:42.094Z,98308.83
2019-02-25T22:48:14.067Z,98312.71
2019-02-25T22:50:44.646Z,98302.52
2019-02-25T22:53:15.088Z,98297.33
2019-02-25T22:55:47.843Z,98305.57
2019-02-25T22:58:17.690Z,98310.13
2019-02-25T23:00:50.292Z,98305.11
2019-02-25T23:03:22.730Z,98307.53
2019-02-25T23:05:55.074Z,98313.80
2019-02-25T23:08:25.932Z,98313.26
2019-02-25T23:14:58.762Z,98322.16
2019-02-25T23:17:31.105Z,98324.00
2019-02-25T23:20:02.645Z,98331.02
2019-02-25T23:22:35.032Z,98333.26
2019-02-25T23:25:06.078Z,98331.20
2019-02-25T23:27:37.230Z,98330.36
2019-02-25T23:30:09.086Z,98331.56
2019-02-25T23:32:39.580Z,98332.68
2019-02-25T23:35:13.666Z,98330.73
2019-02-25T23:37:45.144Z,98334.89
2019-02-25T23:40:16.641Z,98334.22
2019-02-25T23:42:48.967Z,98332.56
2019-02-25T23:45:21.115Z,98333.77
2019-02-25T23:47:55.510Z,98325.08
2019-02-25T23:50:25.103Z,98335.62
2019-02-25T23:52:55.396Z,98334.22
2019-02-25T23:55:27.757Z,98343.14
2019-02-25T23:57:58.033Z,98345.39
